Strona główna
METAR-TAF:

METAR-TAF

Lotnisko :

Valley, Walia

Szerokość geograficzna: 53-15N, Długość geograficzna: 004-32W, wysokość: 1 m

Aktualna obserwacja pogody

Raport powstał 1 godzina i 8 minut temu, godzina 21:50 UTC
Wiatr 9 kt od południowy wschód
Temperatura 9°C
Wilgotność 76%
Ciśnienie 1014 hPa
Widzialność 10 km lub więcej

METAR: EGOV 042150Z AUTO 13009KT 9999 NCD 09/05 Q1014

czas: 23:58 (22:58 UTC)


TAF: brakujący

Obserwacja i prognoza pogody dla ponad 4000 lotnisk (raport METAR i TAF).

Dostępne stacje oznaczono żółtymi i czerwonymi punktami na mapie.

Najedź kursorem aby zobaczyć nazwę stacji.

Kliknij aby zobaczyć obserwacje i prognozy pogody.

Aby zmienić mapę: kliknij na zielony przycisk z czarnym krzyżykiem, aby powiększyć; na zielony przycisk z myślnikiem, aby pomniejszyć; na zielone strzałki, aby przejść do map sąsiednich.


METAR-TAF: